createdAt,value
2022-08-02T00:00:10.165Z,20.70
2022-08-02T00:02:37.126Z,20.70
2022-08-02T00:05:05.032Z,20.70
2022-08-02T00:07:32.786Z,20.60
2022-08-02T00:10:01.011Z,20.60
2022-08-02T00:12:28.119Z,20.60
2022-08-02T00:14:54.976Z,20.50
2022-08-02T00:17:21.710Z,20.50
2022-08-02T00:19:48.639Z,20.40
2022-08-02T00:22:15.473Z,20.40
2022-08-02T00:24:42.228Z,20.40
2022-08-02T00:27:09.498Z,20.40
2022-08-02T00:29:42.628Z,20.40
2022-08-02T00:32:20.302Z,20.40
2022-08-02T00:34:47.027Z,20.40
2022-08-02T00:37:13.794Z,20.40
2022-08-02T00:39:42.393Z,20.40
2022-08-02T00:42:10.026Z,20.30
2022-08-02T00:44:37.340Z,20.30
2022-08-02T00:47:04.153Z,20.20
2022-08-02T00:49:30.991Z,20.20
2022-08-02T00:52:00.591Z,20.20
2022-08-02T00:54:27.360Z,20.10
2022-08-02T00:56:54.091Z,20.00
2022-08-02T00:59:20.886Z,20.00
2022-08-02T01:01:56.059Z,20.10
2022-08-02T01:04:30.709Z,20.10
2022-08-02T01:07:13.600Z,20.00
2022-08-02T01:09:45.286Z,20.10
2022-08-02T01:12:13.190Z,20.10
2022-08-02T01:14:42.551Z,20.00
2022-08-02T01:17:34.299Z,20.00
2022-08-02T01:20:42.216Z,19.90
2022-08-02T01:23:47.422Z,19.80
2022-08-02T01:26:39.202Z,19.80
2022-08-02T01:29:13.387Z,19.80
2022-08-02T01:31:47.173Z,19.80
2022-08-02T01:34:22.478Z,19.70
2022-08-02T01:37:16.577Z,19.70
2022-08-02T01:39:45.910Z,19.70
2022-08-02T01:42:14.037Z,19.70
2022-08-02T01:44:43.434Z,19.60
2022-08-02T01:47:17.841Z,19.60
2022-08-02T01:49:48.055Z,19.60
2022-08-02T01:52:22.639Z,19.60
2022-08-02T01:55:18.739Z,19.60
2022-08-02T01:57:57.133Z,19.60
2022-08-02T02:00:28.962Z,19.60
2022-08-02T02:02:57.800Z,19.70
2022-08-02T02:05:27.267Z,19.60
2022-08-02T02:07:56.843Z,19.60
2022-08-02T02:10:30.341Z,19.60
2022-08-02T02:13:04.164Z,19.60
2022-08-02T02:15:31.938Z,19.60
2022-08-02T02:18:12.791Z,19.60
2022-08-02T02:20:41.129Z,19.60
2022-08-02T02:23:08.066Z,19.60
2022-08-02T02:25:41.606Z,19.60
2022-08-02T02:28:22.547Z,19.60
2022-08-02T02:30:51.863Z,19.60
2022-08-02T02:33:19.626Z,19.50
2022-08-02T02:35:49.739Z,19.50
2022-08-02T02:38:19.072Z,19.40
2022-08-02T02:40:47.534Z,19.30
2022-08-02T02:43:15.532Z,19.20
2022-08-02T02:45:43.721Z,19.20
2022-08-02T02:48:13.694Z,19.20
2022-08-02T02:50:42.303Z,19.20
2022-08-02T02:53:10.444Z,19.20
2022-08-02T02:55:38.248Z,19.20
2022-08-02T02:58:06.440Z,19.00
2022-08-02T03:00:52.236Z,19.00
2022-08-02T03:03:21.345Z,19.10
2022-08-02T03:05:48.444Z,19.10
2022-08-02T03:08:15.304Z,19.10
2022-08-02T03:10:44.506Z,19.20
2022-08-02T03:13:12.541Z,19.10
2022-08-02T03:15:40.299Z,18.90
2022-08-02T03:18:09.873Z,18.90
2022-08-02T03:20:36.887Z,19.10
2022-08-02T03:23:03.621Z,19.10
2022-08-02T03:25:30.448Z,19.10
2022-08-02T03:27:57.132Z,19.10
2022-08-02T03:30:26.933Z,19.10
2022-08-02T03:32:53.802Z,19.20
2022-08-02T03:35:24.157Z,19.20
2022-08-02T03:37:54.165Z,19.20
2022-08-02T03:40:21.564Z,19.20
2022-08-02T03:42:49.497Z,19.00
2022-08-02T03:45:16.658Z,18.80
2022-08-02T03:47:44.564Z,18.80
2022-08-02T03:50:13.359Z,19.00
2022-08-02T03:52:45.121Z,18.90
2022-08-02T03:55:13.453Z,19.00
2022-08-02T03:57:41.766Z,18.90
2022-08-02T04:00:10.873Z,18.60
2022-08-02T04:02:37.553Z,18.60
2022-08-02T04:05:04.968Z,18.70
2022-08-02T04:08:32.752Z,18.80
2022-08-02T04:10:18.479Z,18.80
2022-08-02T04:12:45.610Z,18.90
2022-08-02T04:15:14.826Z,19.00
2022-08-02T04:17:47.815Z,19.00
2022-08-02T04:20:27.298Z,19.00
2022-08-02T04:23:10.224Z,19.00
2022-08-02T04:25:40.595Z,19.00
2022-08-02T04:28:16.609Z,18.80
2022-08-02T04:30:46.787Z,19.00
2022-08-02T04:33:14.463Z,19.00
2022-08-02T04:35:41.561Z,19.00
2022-08-02T04:38:10.588Z,19.00
2022-08-02T04:40:38.213Z,18.90
2022-08-02T04:43:05.287Z,18.60
2022-08-02T04:45:32.680Z,18.80
2022-08-02T04:48:05.035Z,18.60
2022-08-02T04:50:32.439Z,18.70
2022-08-02T04:52:59.186Z,18.80
2022-08-02T04:55:28.806Z,18.80
2022-08-02T04:57:57.772Z,18.90
2022-08-02T05:00:27.812Z,18.80
2022-08-02T05:02:56.781Z,18.90
2022-08-02T05:05:23.655Z,19.00
2022-08-02T05:07:50.340Z,19.10
2022-08-02T05:10:17.154Z,19.20
2022-08-02T05:12:44.037Z,19.30
2022-08-02T05:15:13.158Z,19.20
2022-08-02T05:17:48.023Z,19.20
2022-08-02T05:20:18.752Z,19.30
2022-08-02T05:22:45.828Z,19.30
2022-08-02T05:25:12.949Z,19.30
2022-08-02T05:27:39.700Z,19.30
2022-08-02T05:30:07.311Z,19.30
2022-08-02T05:32:34.457Z,19.30
2022-08-02T05:35:02.159Z,19.40
2022-08-02T05:37:32.164Z,19.30
2022-08-02T05:39:59.325Z,19.30
2022-08-02T05:42:31.269Z,19.50
2022-08-02T05:44:58.184Z,19.30
2022-08-02T05:47:25.879Z,19.40
2022-08-02T05:49:52.836Z,19.40
2022-08-02T05:52:20.863Z,19.50
2022-08-02T05:54:53.609Z,19.50
2022-08-02T05:57:26.635Z,19.50
2022-08-02T06:00:06.498Z,19.50
2022-08-02T06:03:05.132Z,19.60
2022-08-02T06:05:35.633Z,19.50
2022-08-02T06:08:04.369Z,19.20
2022-08-02T06:10:36.327Z,19.00
2022-08-02T06:13:14.507Z,18.60
2022-08-02T06:15:53.155Z,18.50
2022-08-02T06:18:28.517Z,18.80
2022-08-02T06:20:58.883Z,19.20
2022-08-02T06:23:57.615Z,19.40
2022-08-02T06:26:27.301Z,19.60
2022-08-02T06:28:55.498Z,19.70
2022-08-02T06:31:22.774Z,19.60
2022-08-02T06:33:49.718Z,19.70
2022-08-02T06:36:27.514Z,19.70
2022-08-02T06:39:06.098Z,19.70
2022-08-02T06:41:41.176Z,19.70
2022-08-02T06:44:33.856Z,19.80
2022-08-02T06:47:10.286Z,19.80
2022-08-02T06:49:51.831Z,20.00
2022-08-02T06:52:34.910Z,20.00
2022-08-02T06:55:04.085Z,20.00
2022-08-02T06:57:31.290Z,20.00
2022-08-02T07:00:01.682Z,20.30
2022-08-02T07:02:32.221Z,20.30
2022-08-02T07:04:59.329Z,20.40
2022-08-02T07:07:26.787Z,20.50
2022-08-02T07:10:00.378Z,20.70
2022-08-02T07:12:31.105Z,20.70
2022-08-02T07:14:59.533Z,20.90
2022-08-02T07:17:26.673Z,20.90
2022-08-02T07:19:53.434Z,20.90
2022-08-02T07:22:23.155Z,20.90
2022-08-02T07:24:52.885Z,20.90
2022-08-02T07:27:23.613Z,21.10
2022-08-02T07:29:50.662Z,21.10
2022-08-02T07:32:19.195Z,21.20
2022-08-02T07:34:53.245Z,21.20
2022-08-02T07:37:35.342Z,21.30
2022-08-02T07:40:15.331Z,21.40
2022-08-02T07:42:48.549Z,21.60
2022-08-02T07:45:15.293Z,21.60
2022-08-02T07:47:44.756Z,21.70
2022-08-02T07:50:12.710Z,21.70
2022-08-02T07:52:41.147Z,21.80
2022-08-02T07:55:09.859Z,22.10
2022-08-02T07:57:39.376Z,22.10
2022-08-02T08:00:12.008Z,22.00
2022-08-02T08:02:42.277Z,22.10
2022-08-02T08:05:10.816Z,22.00
2022-08-02T08:07:37.849Z,21.90
2022-08-02T08:10:06.336Z,21.90
2022-08-02T08:12:33.274Z,22.10
2022-08-02T08:15:00.114Z,22.30
2022-08-02T08:17:26.855Z,22.30
2022-08-02T08:19:53.755Z,22.40
2022-08-02T08:22:21.205Z,22.50
2022-08-02T08:24:48.883Z,22.70
2022-08-02T08:27:19.694Z,22.70
2022-08-02T08:29:46.670Z,22.70
2022-08-02T08:32:17.448Z,22.70
2022-08-02T08:34:48.119Z,22.80
2022-08-02T08:37:18.277Z,22.90
2022-08-02T08:39:56.824Z,23.00
2022-08-02T08:42:29.118Z,23.00
2022-08-02T08:44:57.489Z,23.10
2022-08-02T08:47:33.752Z,23.20
2022-08-02T08:50:17.869Z,23.40
2022-08-02T08:52:56.186Z,23.50
2022-08-02T08:55:24.865Z,23.40
2022-08-02T08:57:52.475Z,23.50
2022-08-02T09:00:19.309Z,23.60
2022-08-02T09:02:46.943Z,23.50
2022-08-02T09:05:16.817Z,23.40
2022-08-02T09:07:48.439Z,23.70
2022-08-02T09:10:41.226Z,23.50
2022-08-02T09:13:38.342Z,23.70
2022-08-02T09:16:12.570Z,23.90
2022-08-02T09:18:45.770Z,24.20
2022-08-02T09:21:15.688Z,24.30
2022-08-02T09:23:46.252Z,24.20
2022-08-02T09:26:21.310Z,24.30
2022-08-02T09:28:52.507Z,24.40
2022-08-02T09:31:23.751Z,24.50
2022-08-02T09:33:54.978Z,24.50
2022-08-02T09:36:23.060Z,24.70
2022-08-02T09:39:01.904Z,24.50
2022-08-02T09:41:30.629Z,24.50
2022-08-02T09:44:04.700Z,24.70
2022-08-02T09:46:37.636Z,24.50
2022-08-02T09:49:08.653Z,24.90
2022-08-02T09:51:49.733Z,25.30
2022-08-02T09:54:20.992Z,25.60
2022-08-02T09:56:54.682Z,25.60
2022-08-02T09:59:24.825Z,25.50
2022-08-02T10:02:02.031Z,25.60
2022-08-02T10:04:52.039Z,25.60
2022-08-02T10:07:22.321Z,25.60
2022-08-02T10:09:50.429Z,25.90
2022-08-02T10:12:17.712Z,26.20
2022-08-02T10:14:45.695Z,26.30
2022-08-02T10:17:12.657Z,26.30
2022-08-02T10:20:03.355Z,26.00
2022-08-02T10:22:27.466Z,25.70
2022-08-02T10:24:54.547Z,26.00
2022-08-02T10:27:21.676Z,26.20
2022-08-02T10:29:55.498Z,25.80
2022-08-02T10:32:28.645Z,25.90
2022-08-02T10:35:19.503Z,26.50
2022-08-02T10:37:56.288Z,26.50
2022-08-02T10:40:23.591Z,26.30
2022-08-02T10:43:00.966Z,26.70
2022-08-02T10:45:28.233Z,27.20
2022-08-02T10:48:14.614Z,27.20
2022-08-02T10:50:48.030Z,27.10
2022-08-02T10:53:26.771Z,27.40
2022-08-02T10:56:02.070Z,27.60
2022-08-02T10:58:32.215Z,27.70
2022-08-02T11:01:06.331Z,27.80
2022-08-02T11:03:39.633Z,27.90
2022-08-02T11:06:24.692Z,28.10
2022-08-02T11:09:33.630Z,28.20
2022-08-02T11:12:06.038Z,28.40
2022-08-02T11:14:41.653Z,28.60
2022-08-02T11:17:11.088Z,28.40
2022-08-02T11:20:08.952Z,28.50
2022-08-02T11:22:36.842Z,27.60
2022-08-02T11:25:22.035Z,27.60
2022-08-02T11:27:56.846Z,27.70
2022-08-02T11:30:26.866Z,27.50
2022-08-02T11:33:00.674Z,27.80
2022-08-02T11:35:38.549Z,27.90
2022-08-02T11:38:21.365Z,28.10
2022-08-02T11:40:49.022Z,28.30
2022-08-02T11:43:20.765Z,27.90
2022-08-02T11:45:49.464Z,27.60
2022-08-02T11:48:30.657Z,28.10
2022-08-02T11:51:23.826Z,28.30
2022-08-02T11:53:57.597Z,28.00
2022-08-02T11:56:30.004Z,27.50
2022-08-02T11:59:08.220Z,27.80
2022-08-02T12:01:45.108Z,28.70
2022-08-02T12:04:17.348Z,28.70
2022-08-02T12:06:53.167Z,28.70
2022-08-02T12:09:20.031Z,28.70
2022-08-02T12:11:50.998Z,28.70
2022-08-02T12:14:18.108Z,28.90
2022-08-02T12:17:03.577Z,28.80
2022-08-02T12:19:31.628Z,28.40
2022-08-02T12:22:41.734Z,28.10
2022-08-02T12:25:33.952Z,28.10
2022-08-02T12:28:23.288Z,28.40
2022-08-02T12:30:58.782Z,28.70
2022-08-02T12:33:29.327Z,29.10
2022-08-02T12:35:56.582Z,29.10
2022-08-02T12:38:23.307Z,28.90
2022-08-02T12:40:50.060Z,29.00
2022-08-02T12:43:22.319Z,29.20
2022-08-02T12:45:54.527Z,29.20
2022-08-02T12:48:37.351Z,29.70
2022-08-02T12:51:23.721Z,28.90
2022-08-02T12:53:59.799Z,28.70
2022-08-02T12:56:32.111Z,29.00
2022-08-02T12:58:59.619Z,30.00
2022-08-02T13:01:27.777Z,30.00
2022-08-02T13:04:09.145Z,30.30
2022-08-02T13:06:44.162Z,29.40
2022-08-02T13:09:13.955Z,29.20
2022-08-02T13:11:43.559Z,30.00
2022-08-02T13:14:11.774Z,30.80
2022-08-02T13:16:38.572Z,31.30
2022-08-02T13:19:05.417Z,31.50
2022-08-02T13:21:41.677Z,31.70
2022-08-02T13:24:38.589Z,31.60
2022-08-02T13:27:08.169Z,31.70
2022-08-02T13:29:36.596Z,31.80
2022-08-02T13:32:03.679Z,31.30
2022-08-02T13:34:30.506Z,30.70
2022-08-02T13:36:57.234Z,29.90
2022-08-02T13:39:23.953Z,29.80
2022-08-02T13:41:50.653Z,29.30
2022-08-02T13:44:17.501Z,29.40
2022-08-02T13:46:45.709Z,30.50
2022-08-02T13:49:18.894Z,30.80
2022-08-02T13:51:47.127Z,30.20
2022-08-02T13:54:14.717Z,30.00
2022-08-02T13:56:41.496Z,29.40
2022-08-02T13:59:55.438Z,29.70
2022-08-02T14:01:56.674Z,30.40
2022-08-02T14:04:24.140Z,30.60
2022-08-02T14:06:51.304Z,30.60
2022-08-02T14:09:18.071Z,30.40
2022-08-02T14:11:45.985Z,31.10
2022-08-02T14:14:16.582Z,30.20
2022-08-02T14:16:45.297Z,30.30
2022-08-02T14:19:16.359Z,30.20
2022-08-02T14:21:46.523Z,31.00
2022-08-02T14:24:15.163Z,31.10
2022-08-02T14:26:42.125Z,30.80
2022-08-02T14:29:09.167Z,30.00
2022-08-02T14:31:40.155Z,29.90
2022-08-02T14:34:11.112Z,30.10
2022-08-02T14:36:39.056Z,30.40
2022-08-02T14:39:05.974Z,30.20
2022-08-02T14:41:54.742Z,30.40
2022-08-02T14:44:20.645Z,30.90
2022-08-02T14:46:47.389Z,30.70
2022-08-02T14:49:25.447Z,31.00
2022-08-02T14:51:55.349Z,30.70
2022-08-02T14:54:28.237Z,30.50
2022-08-02T14:57:03.441Z,30.10
2022-08-02T14:59:31.218Z,30.10
2022-08-02T15:01:59.040Z,30.20
2022-08-02T15:04:26.177Z,30.20
2022-08-02T15:06:53.090Z,30.70
2022-08-02T15:09:20.375Z,30.70
2022-08-02T15:11:49.094Z,30.60
2022-08-02T15:14:22.072Z,30.30
2022-08-02T15:16:57.104Z,30.70
2022-08-02T15:19:25.794Z,30.80
2022-08-02T15:22:03.854Z,30.70
2022-08-02T15:24:30.645Z,30.60
2022-08-02T15:26:57.416Z,30.70
2022-08-02T15:29:24.316Z,31.20
2022-08-02T15:31:50.992Z,31.30
2022-08-02T15:34:18.845Z,31.00
2022-08-02T15:36:45.758Z,30.60
2022-08-02T15:39:12.486Z,31.00
2022-08-02T15:41:39.186Z,30.40
2022-08-02T15:44:09.434Z,30.80
2022-08-02T15:46:38.188Z,30.80
2022-08-02T15:49:05.506Z,31.10
2022-08-02T15:51:32.381Z,31.00
2022-08-02T15:53:59.179Z,30.40
2022-08-02T15:56:26.053Z,30.20
2022-08-02T15:58:55.454Z,30.00
2022-08-02T16:01:23.955Z,30.10
2022-08-02T16:03:50.864Z,29.90
2022-08-02T16:06:17.648Z,29.90
2022-08-02T16:08:51.677Z,30.20
2022-08-02T16:11:21.230Z,30.20
2022-08-02T16:13:53.601Z,30.70
2022-08-02T16:16:32.448Z,30.20
2022-08-02T16:19:00.116Z,30.10
2022-08-02T16:21:48.908Z,30.20
2022-08-02T16:24:17.457Z,30.10
2022-08-02T16:26:44.569Z,30.20
2022-08-02T16:29:11.772Z,29.80
2022-08-02T16:31:42.478Z,30.00
2022-08-02T16:34:10.463Z,30.20
2022-08-02T16:36:37.458Z,30.60
2022-08-02T16:39:05.038Z,31.80
2022-08-02T16:41:51.196Z,31.40
2022-08-02T16:44:29.779Z,30.40
2022-08-02T16:47:01.038Z,30.10
2022-08-02T16:50:06.894Z,30.10
2022-08-02T16:52:16.101Z,29.90
2022-08-02T16:54:42.825Z,29.60
2022-08-02T16:57:09.636Z,29.70
2022-08-02T16:59:42.830Z,29.70
2022-08-02T17:02:15.342Z,29.70
2022-08-02T17:04:45.488Z,29.80
2022-08-02T17:08:06.012Z,29.60
2022-08-02T17:10:02.303Z,29.60
2022-08-02T17:12:32.026Z,29.50
2022-08-02T17:15:00.708Z,29.50
2022-08-02T17:17:39.341Z,29.40
2022-08-02T17:20:09.240Z,29.40
2022-08-02T17:22:36.801Z,29.60
2022-08-02T17:25:04.907Z,29.60
2022-08-02T17:27:31.633Z,29.50
2022-08-02T17:29:59.815Z,29.40
2022-08-02T17:32:27.293Z,29.30
2022-08-02T17:34:59.891Z,29.20
2022-08-02T17:37:28.666Z,29.20
2022-08-02T17:39:57.006Z,29.20
2022-08-02T17:42:25.045Z,29.20
2022-08-02T17:45:07.156Z,29.10
2022-08-02T17:47:43.062Z,29.00
2022-08-02T17:50:29.816Z,29.00
2022-08-02T17:52:56.802Z,28.90
2022-08-02T17:55:23.663Z,28.70
2022-08-02T17:57:57.792Z,28.70
2022-08-02T18:00:31.420Z,28.60
2022-08-02T18:03:00.497Z,28.50
2022-08-02T18:05:39.241Z,28.50
2022-08-02T18:08:08.663Z,28.40
2022-08-02T18:10:35.452Z,28.30
2022-08-02T18:13:03.604Z,28.20
2022-08-02T18:15:32.373Z,28.20
2022-08-02T18:17:59.830Z,28.10
2022-08-02T18:20:26.557Z,28.00
2022-08-02T18:22:55.874Z,27.90
2022-08-02T18:25:36.244Z,27.70
2022-08-02T18:28:10.816Z,27.70
2022-08-02T18:30:37.667Z,27.60
2022-08-02T18:33:58.839Z,27.60
2022-08-02T18:35:55.377Z,27.50
2022-08-02T18:38:23.593Z,27.40
2022-08-02T18:40:50.803Z,27.30
2022-08-02T18:43:18.614Z,27.20
2022-08-02T18:46:05.262Z,27.30
2022-08-02T18:48:32.342Z,27.20
2022-08-02T18:50:59.030Z,27.00
2022-08-02T18:53:39.515Z,26.90
2022-08-02T18:56:10.719Z,26.90
2022-08-02T18:58:48.249Z,26.80
2022-08-02T19:01:31.657Z,26.80
2022-08-02T19:04:01.588Z,26.60
2022-08-02T19:06:29.275Z,26.60
2022-08-02T19:09:03.542Z,26.50
2022-08-02T19:11:35.144Z,26.50
2022-08-02T19:14:02.431Z,26.50
2022-08-02T19:16:36.793Z,26.50
2022-08-02T19:19:07.976Z,26.40
2022-08-02T19:22:16.134Z,26.30
2022-08-02T19:24:22.211Z,26.10
2022-08-02T19:26:51.958Z,26.00
2022-08-02T19:29:42.218Z,26.00
2022-08-02T19:32:42.835Z,25.90
2022-08-02T19:34:56.129Z,25.90
2022-08-02T19:37:23.021Z,25.80
2022-08-02T19:39:50.669Z,25.80
2022-08-02T19:42:18.733Z,25.80
2022-08-02T19:44:46.067Z,25.80
2022-08-02T19:47:19.419Z,25.70
2022-08-02T19:52:33.404Z,25.40
2022-08-02T19:55:59.638Z,25.30
2022-08-02T19:57:48.164Z,25.30
2022-08-02T20:00:21.330Z,25.30
2022-08-02T20:02:48.707Z,25.30
2022-08-02T20:05:16.487Z,25.20
2022-08-02T20:07:56.314Z,25.30
2022-08-02T20:10:24.839Z,25.20
2022-08-02T20:12:53.994Z,25.20
2022-08-02T20:15:21.824Z,25.00
2022-08-02T20:17:49.299Z,24.90
2022-08-02T20:20:17.049Z,25.00
2022-08-02T20:23:31.937Z,25.00
2022-08-02T20:25:54.255Z,25.00
2022-08-02T20:28:21.951Z,24.90
2022-08-02T20:30:49.134Z,24.80
2022-08-02T20:33:21.182Z,24.70
2022-08-02T20:35:48.530Z,24.60
2022-08-02T20:38:19.087Z,24.60
2022-08-02T20:40:52.070Z,24.60
2022-08-02T20:43:18.771Z,24.50
2022-08-02T20:45:46.327Z,24.40
2022-08-02T20:48:13.027Z,24.20
2022-08-02T20:50:49.504Z,24.20
2022-08-02T20:53:23.264Z,24.20
2022-08-02T20:55:53.180Z,24.10
2022-08-02T20:58:20.622Z,24.10
2022-08-02T21:00:58.858Z,24.00
2022-08-02T21:03:38.739Z,23.90
2022-08-02T21:06:10.915Z,23.90
2022-08-02T21:08:38.811Z,23.80
2022-08-02T21:11:12.905Z,23.70
2022-08-02T21:13:47.433Z,23.60
2022-08-02T21:16:29.798Z,23.60
2022-08-02T21:19:00.272Z,23.50
2022-08-02T21:21:27.873Z,23.40
2022-08-02T21:23:55.258Z,23.40
2022-08-02T21:26:25.932Z,23.40
2022-08-02T21:28:58.306Z,23.20
2022-08-02T21:31:30.049Z,23.10
2022-08-02T21:34:00.244Z,23.00
2022-08-02T21:36:33.930Z,23.00
2022-08-02T21:39:09.272Z,23.00
2022-08-02T21:41:45.892Z,22.90
2022-08-02T21:44:18.721Z,22.80
2022-08-02T21:46:49.349Z,22.80
2022-08-02T21:49:17.854Z,22.80
2022-08-02T21:51:49.773Z,22.70
2022-08-02T21:54:19.924Z,22.70
2022-08-02T21:56:50.096Z,22.80
2022-08-02T21:59:25.473Z,22.60
2022-08-02T22:01:56.652Z,22.50
2022-08-02T22:04:28.568Z,22.50
2022-08-02T22:06:56.799Z,22.60
2022-08-02T22:09:42.252Z,22.60
2022-08-02T22:12:17.841Z,22.40
2022-08-02T22:14:49.622Z,22.30
2022-08-02T22:17:21.708Z,22.20
2022-08-02T22:20:09.342Z,22.00
2022-08-02T22:22:39.612Z,22.20
2022-08-02T22:25:10.059Z,22.20
2022-08-02T22:28:35.507Z,22.10
2022-08-02T22:30:35.590Z,22.30
2022-08-02T22:33:21.472Z,22.70
2022-08-02T22:36:00.311Z,22.20
2022-08-02T22:38:27.055Z,22.10
2022-08-02T22:40:54.154Z,21.90
2022-08-02T22:43:23.141Z,21.80
2022-08-02T22:45:50.772Z,21.80
2022-08-02T22:48:17.585Z,21.80
2022-08-02T22:50:44.334Z,21.80
2022-08-02T22:53:11.048Z,21.80
2022-08-02T22:55:41.322Z,21.40
2022-08-02T22:58:09.089Z,21.20
2022-08-02T22:59:05.898Z,25.60
2022-08-02T23:00:36.148Z,21.40
2022-08-02T23:03:03.128Z,21.50
2022-08-02T23:05:34.069Z,21.40
2022-08-02T23:08:01.016Z,21.50
2022-08-02T23:10:28.248Z,21.50
2022-08-02T23:12:58.863Z,21.50
2022-08-02T23:15:26.392Z,21.50
2022-08-02T23:18:12.341Z,21.20
2022-08-02T23:20:39.015Z,21.20
2022-08-02T23:23:11.708Z,21.20
2022-08-02T23:25:38.750Z,21.40
2022-08-02T23:28:05.514Z,21.40
2022-08-02T23:30:32.208Z,21.40
2022-08-02T23:32:58.879Z,21.30
2022-08-02T23:35:25.639Z,21.20
2022-08-02T23:37:57.798Z,21.20
2022-08-02T23:40:39.655Z,21.20
2022-08-02T23:43:13.623Z,21.20
2022-08-02T23:45:43.118Z,21.30
2022-08-02T23:48:09.821Z,21.30
2022-08-02T23:50:36.673Z,21.20
2022-08-02T23:53:03.864Z,21.40
2022-08-02T23:55:30.648Z,21.30
2022-08-02T23:57:57.360Z,21.30
